Time;durP1;ratioP1;P1;durP2;ratioP2;P2;SDS_P1;SDS_P2;PMS_P1;PMS_P2;Temp;Humidity;BMP_temperature;BMP_pressure;BME280_temperature;BME280_humidity;BME280_pressure;Samples;Min_cycle;Max_cycle;Signal;HPM_P1;HPM_P2
2024/01/26 00:02:06;;;;;;;0.40;0.40;;;;;;;6.19;64.41;95189.91;5043038;28;20199;-70
2024/01/26 00:04:31;;;;;;;0.30;0.30;;;;;;;6.00;64.03;95176.34;5034242;28;20625;-70
2024/01/26 00:06:57;;;;;;;0.40;0.40;;;;;;;6.16;64.04;95190.25;5033071;28;20198;-69
2024/01/26 00:09:22;;;;;;;0.40;0.40;;;;;;;6.22;63.64;95198.22;5033279;28;20175;-70
2024/01/26 00:11:48;;;;;;;0.37;0.37;;;;;;;6.06;63.83;95177.41;5033363;28;20180;-70
2024/01/26 00:14:13;;;;;;;0.47;0.47;;;;;;;6.26;63.34;95203.91;5033271;28;20176;-70
2024/01/26 00:16:39;;;;;;;0.40;0.40;;;;;;;6.27;63.55;95203.75;5033095;28;20183;-70
2024/01/26 00:19:05;;;;;;;0.40;0.40;;;;;;;6.25;63.50;95199.66;5033075;28;20613;-70
2024/01/26 00:21:31;;;;;;;0.40;0.40;;;;;;;6.20;64.48;95205.44;5032868;28;20251;-70
2024/01/26 00:23:57;;;;;;;0.40;0.40;;;;;;;6.22;63.67;95213.91;5032907;28;20262;-70
2024/01/26 00:26:22;;;;;;;0.40;0.40;;;;;;;6.17;64.25;95218.03;5032979;28;20234;-70
2024/01/26 00:28:48;;;;;;;0.40;0.40;;;;;;;6.22;64.43;95220.94;5032840;28;20182;-70
2024/01/26 00:31:17;;;;;;;0.40;0.40;;;;;;;6.28;64.04;95231.50;5032898;28;20258;-70
2024/01/26 00:33:43;;;;;;;0.40;0.40;;;;;;;6.31;64.04;95222.50;5032895;28;20182;-70
2024/01/26 00:36:09;;;;;;;0.40;0.40;;;;;;;6.33;64.11;95223.13;5032748;28;20176;-70
2024/01/26 00:38:34;;;;;;;0.57;0.57;;;;;;;6.22;62.74;95220.94;5032678;28;20183;-70
2024/01/26 00:41:00;;;;;;;0.50;0.50;;;;;;;6.22;63.40;95226.16;5032728;28;20230;-70
2024/01/26 00:43:25;;;;;;;0.57;0.57;;;;;;;6.18;63.45;95227.50;5031753;28;20202;-70
2024/01/26 00:45:51;;;;;;;0.40;0.40;;;;;;;6.15;64.02;95235.66;5032636;28;20597;-70
2024/01/26 00:48:16;;;;;;;0.70;0.70;;;;;;;6.09;64.24;95221.50;5032644;28;20187;-70
2024/01/26 00:50:42;;;;;;;0.30;0.30;;;;;;;6.09;63.90;95224.13;5032544;28;20175;-70
2024/01/26 00:53:07;;;;;;;0.40;0.40;;;;;;;5.95;63.99;95225.69;5032543;28;20223;-70
2024/01/26 00:55:33;;;;;;;0.40;0.40;;;;;;;5.90;64.04;95230.59;5032650;28;20279;-70
2024/01/26 00:57:59;;;;;;;0.40;0.40;;;;;;;5.95;64.07;95235.34;5032561;28;20175;-70
2024/01/26 01:00:25;;;;;;;0.40;0.40;;;;;;;5.95;64.24;95238.75;5032349;28;20671;-69
2024/01/26 01:02:51;;;;;;;0.73;0.73;;;;;;;5.89;64.39;95238.63;5032138;28;20184;-70
2024/01/26 01:05:17;;;;;;;0.33;0.33;;;;;;;5.80;63.81;95227.38;5032249;28;20168;-70
2024/01/26 01:07:42;;;;;;;0.50;0.50;;;;;;;5.89;63.53;95244.66;5032099;28;20176;-69
2024/01/26 01:10:10;;;;;;;0.40;0.40;;;;;;;5.84;64.15;95238.28;5032139;28;20242;-70
2024/01/26 01:12:38;;;;;;;0.30;0.30;;;;;;;5.86;63.50;95239.75;5032099;28;20183;-70
2024/01/26 01:15:04;;;;;;;0.40;0.40;;;;;;;5.74;63.60;95248.97;5031926;28;20195;-70
2024/01/26 01:17:29;;;;;;;0.40;0.40;;;;;;;5.73;63.45;95246.50;5031919;28;20172;-70
2024/01/26 01:19:55;;;;;;;0.90;0.83;;;;;;;5.78;62.65;95233.78;5031811;28;20704;-70
2024/01/26 01:22:21;;;;;;;0.40;0.40;;;;;;;5.75;63.08;95239.31;5031789;28;20262;-70
2024/01/26 01:24:46;;;;;;;0.40;0.40;;;;;;;5.76;63.02;95240.97;5031868;28;20168;-70
2024/01/26 01:27:12;;;;;;;0.40;0.40;;;;;;;5.71;63.24;95228.41;5031773;28;20171;-70
2024/01/26 01:29:37;;;;;;;0.40;0.40;;;;;;;5.71;62.63;95240.66;5031683;28;20636;-70
2024/01/26 01:32:03;;;;;;;0.40;0.40;;;;;;;5.77;63.13;95238.19;5030434;28;20175;-69
2024/01/26 01:34:28;;;;;;;0.40;0.40;;;;;;;5.81;63.14;95239.44;5031596;28;20168;-70
2024/01/26 01:36:54;;;;;;;0.40;0.40;;;;;;;5.58;63.41;95225.53;5031694;28;20575;-70
2024/01/26 01:39:20;;;;;;;0.40;0.40;;;;;;;5.66;62.77;95241.16;5031360;28;20171;-70
2024/01/26 01:41:49;;;;;;;0.40;0.40;;;;;;;5.67;63.55;95237.56;5031669;28;20179;-70
2024/01/26 01:44:15;;;;;;;0.30;0.30;;;;;;;5.65;63.56;95239.53;5031612;28;20660;-70
2024/01/26 01:46:40;;;;;;;0.40;0.40;;;;;;;5.70;63.39;95252.91;5031352;28;20187;-70
2024/01/26 01:49:06;;;;;;;0.40;0.40;;;;;;;5.43;63.33;95222.84;5031424;28;20179;-70
2024/01/26 01:51:33;;;;;;;0.40;0.40;;;;;;;5.62;63.71;95258.97;5031498;28;20862;-70
2024/01/26 01:53:59;;;;;;;0.40;0.40;;;;;;;5.64;63.82;95250.97;5031410;28;20168;-70
2024/01/26 01:56:26;;;;;;;0.40;0.40;;;;;;;5.64;63.96;95256.19;5031284;28;20168;-70
2024/01/26 01:58:53;;;;;;;0.40;0.40;;;;;;;5.59;64.29;95266.34;5031238;28;20652;-70
2024/01/26 02:01:19;;;;;;;0.53;0.53;;;;;;;5.61;63.91;95270.41;5031072;28;20528;-70
2024/01/26 02:03:44;;;;;;;0.40;0.40;;;;;;;5.52;64.15;95257.56;5030998;28;20333;-70
2024/01/26 02:06:09;;;;;;;0.47;0.47;;;;;;;5.56;64.37;95262.25;5031088;28;20176;-70
2024/01/26 02:08:35;;;;;;;0.40;0.40;;;;;;;5.63;63.88;95263.19;5031045;28;20633;-70
2024/01/26 02:11:00;;;;;;;0.40;0.40;;;;;;;5.57;64.02;95266.50;5031098;28;20251;-70
2024/01/26 02:13:26;;;;;;;0.40;0.40;;;;;;;5.59;64.39;95255.91;5031001;28;20632;-69
2024/01/26 02:15:51;;;;;;;0.40;0.40;;;;;;;5.62;64.12;95266.78;5030926;28;20179;-69
2024/01/26 02:18:17;;;;;;;0.50;0.50;;;;;;;5.60;64.00;95247.09;5030897;28;20168;-69
2024/01/26 02:20:42;;;;;;;0.60;0.60;;;;;;;5.72;64.02;95261.38;5030766;28;20611;-70
2024/01/26 02:23:08;;;;;;;0.40;0.40;;;;;;;5.75;63.33;95265.44;5030771;28;20195;-69
2024/01/26 02:25:33;;;;;;;0.40;0.40;;;;;;;5.72;63.10;95265.78;5030689;28;20178;-69
2024/01/26 02:27:59;;;;;;;1.23;0.70;;;;;;;5.80;62.79;95260.50;5030728;28;20172;-69
2024/01/26 02:30:24;;;;;;;0.40;0.40;;;;;;;5.79;62.56;95264.94;5030803;28;20186;-69
2024/01/26 02:32:49;;;;;;;0.40;0.40;;;;;;;5.75;63.02;95255.00;5030932;28;20175;-70
2024/01/26 02:35:16;;;;;;;0.40;0.40;;;;;;;5.88;62.09;95257.91;5030666;28;20209;-70
2024/01/26 02:37:42;;;;;;;0.40;0.40;;;;;;;5.84;62.76;95256.59;5030618;28;20255;-70
2024/01/26 02:40:10;;;;;;;1.50;0.70;;;;;;;5.81;63.00;95259.53;5030547;28;20258;-69
2024/01/26 02:42:36;;;;;;;1.03;0.63;;;;;;;5.69;62.54;95256.50;5030841;28;20676;-70
2024/01/26 02:45:01;;;;;;;0.40;0.40;;;;;;;5.75;62.75;95260.22;5030549;28;20241;-70
2024/01/26 02:47:27;;;;;;;3.60;0.73;;;;;;;5.74;63.26;95258.59;5030513;28;20175;-71
2024/01/26 02:49:52;;;;;;;0.40;0.40;;;;;;;5.72;62.93;95258.75;5030532;28;20218;-71
2024/01/26 02:52:18;;;;;;;0.40;0.40;;;;;;;5.65;62.56;95258.63;5030491;28;20587;-71
2024/01/26 02:54:43;;;;;;;0.60;0.60;;;;;;;5.61;62.92;95270.41;5030489;28;20222;-71
2024/01/26 02:57:08;;;;;;;0.40;0.40;;;;;;;5.71;62.92;95264.19;5030489;28;20652;-71
2024/01/26 02:59:34;;;;;;;0.90;0.90;;;;;;;5.65;62.81;95257.81;5030286;28;20249;-71
2024/01/26 03:01:59;;;;;;;0.50;0.50;;;;;;;5.85;62.95;95266.88;5030243;28;20207;-71
2024/01/26 03:04:25;;;;;;;2.43;1.90;;;;;;;5.88;62.86;95271.75;5030405;28;20176;-70
2024/01/26 03:06:50;;;;;;;0.40;0.40;;;;;;;5.78;62.99;95262.50;5032359;28;20561;-71
2024/01/26 03:09:16;;;;;;;0.40;0.40;;;;;;;5.77;63.64;95276.53;5034344;28;20237;-70
2024/01/26 03:11:43;;;;;;;1.50;1.40;;;;;;;5.83;63.42;95270.63;5034299;28;20225;-70
2024/01/26 03:14:09;;;;;;;0.40;0.40;;;;;;;5.78;63.13;95250.25;5034438;28;20217;-69
2024/01/26 03:16:35;;;;;;;0.40;0.40;;;;;;;5.82;62.83;95264.59;5033265;28;20880;-70
2024/01/26 03:19:01;;;;;;;0.40;0.40;;;;;;;5.93;62.85;95281.72;5034252;28;20175;-70
2024/01/26 03:21:27;;;;;;;0.40;0.40;;;;;;;5.82;63.83;95269.00;5034002;28;20278;-70
2024/01/26 03:23:52;;;;;;;0.57;0.57;;;;;;;5.86;63.62;95276.34;5034040;28;20216;-69
2024/01/26 03:26:18;;;;;;;0.40;0.40;;;;;;;5.87;63.10;95270.13;5034049;28;20664;-70
2024/01/26 03:28:44;;;;;;;0.40;0.40;;;;;;;5.96;62.97;95270.94;5034018;28;20157;-70
2024/01/26 03:31:09;;;;;;;0.40;0.40;;;;;;;5.92;63.55;95264.41;5032706;28;20211;-70
2024/01/26 03:33:35;;;;;;;0.50;0.50;;;;;;;6.02;62.68;95257.97;5033879;28;20176;-70
2024/01/26 03:36:01;;;;;;;0.40;0.40;;;;;;;6.00;62.78;95262.56;5033814;28;20172;-70
2024/01/26 03:38:26;;;;;;;0.40;0.40;;;;;;;6.05;62.40;95260.22;5033944;28;20688;-70
2024/01/26 03:40:52;;;;;;;0.70;0.70;;;;;;;5.92;63.08;95249.53;5033853;28;20168;-70
2024/01/26 03:43:18;;;;;;;0.53;0.53;;;;;;;5.83;63.02;95226.22;5033655;28;20257;-70
2024/01/26 03:45:43;;;;;;;0.40;0.40;;;;;;;5.84;63.17;95253.97;5033695;28;20559;-70
2024/01/26 03:48:09;;;;;;;0.40;0.40;;;;;;;5.94;63.29;95257.22;5033738;28;20676;-70
2024/01/26 03:50:34;;;;;;;0.40;0.40;;;;;;;5.94;63.36;95254.59;5033548;28;20187;-70
2024/01/26 03:52:59;;;;;;;0.40;0.40;;;;;;;5.98;62.81;95256.69;5033709;28;20685;-70
2024/01/26 03:55:26;;;;;;;0.40;0.40;;;;;;;5.92;63.16;95261.78;5033612;28;20181;-70
2024/01/26 03:57:51;;;;;;;0.87;0.77;;;;;;;5.81;63.27;95249.09;5033497;28;20198;-70
2024/01/26 04:00:17;;;;;;;0.47;0.47;;;;;;;5.65;63.20;95223.88;5033438;28;20632;-70
2024/01/26 04:02:43;;;;;;;0.77;0.77;;;;;;;5.87;62.88;95251.03;5033361;28;20230;-70
2024/01/26 04:05:11;;;;;;;0.53;0.53;;;;;;;5.80;62.80;95256.09;5033335;28;20234;-70
2024/01/26 04:07:37;;;;;;;0.40;0.40;;;;;;;5.80;63.46;95260.50;5033282;28;20180;-70
2024/01/26 04:10:03;;;;;;;10.50;5.90;;;;;;;5.87;63.58;95262.28;5033174;28;20178;-70
2024/01/26 04:12:28;;;;;;;13.57;0.70;;;;;;;5.94;62.82;95270.28;5033156;28;20172;-70
2024/01/26 04:14:54;;;;;;;0.40;0.40;;;;;;;5.88;62.79;95270.97;5033102;28;20612;-70
2024/01/26 04:17:20;;;;;;;0.50;0.50;;;;;;;5.86;63.04;95275.53;5032281;28;20183;-70
2024/01/26 04:19:46;;;;;;;0.40;0.40;;;;;;;5.91;63.08;95275.84;5032741;28;20226;-70
2024/01/26 04:22:11;;;;;;;0.40;0.40;;;;;;;5.89;63.14;95277.78;5033029;28;20215;-70
2024/01/26 04:24:37;;;;;;;0.50;0.50;;;;;;;5.86;62.54;95272.91;5032960;28;20172;-70
2024/01/26 04:27:02;;;;;;;0.40;0.40;;;;;;;5.67;62.77;95254.06;5033058;28;20233;-70
2024/01/26 04:29:28;;;;;;;0.47;0.47;;;;;;;5.98;63.26;95288.03;5032945;28;20198;-70
2024/01/26 04:31:53;;;;;;;0.40;0.40;;;;;;;5.82;62.81;95277.66;5033035;28;20254;-70
2024/01/26 04:34:19;;;;;;;0.40;0.40;;;;;;;6.04;62.61;95289.16;5032842;28;20644;-70
2024/01/26 04:36:48;;;;;;;2.30;0.97;;;;;;;5.96;61.96;95291.84;5032839;28;20266;-69
2024/01/26 04:39:14;;;;;;;0.60;0.60;;;;;;;5.91;62.16;95297.56;5032679;28;20172;-69
2024/01/26 04:41:40;;;;;;;0.50;0.50;;;;;;;5.92;62.65;95303.59;5032520;28;20180;-70
2024/01/26 04:44:06;;;;;;;0.40;0.40;;;;;;;5.87;62.25;95306.69;5032834;28;20175;-70
2024/01/26 04:46:31;;;;;;;1.30;0.57;;;;;;;5.93;62.18;95306.03;5032855;28;20961;-70
2024/01/26 04:48:57;;;;;;;0.83;0.77;;;;;;;6.01;62.46;95306.00;5032544;28;20258;-70
2024/01/26 04:51:22;;;;;;;0.40;0.40;;;;;;;5.93;62.97;95311.25;5032440;28;20183;-70
2024/01/26 04:53:48;;;;;;;0.40;0.40;;;;;;;5.89;63.21;95314.38;5032394;28;20206;-70
2024/01/26 04:56:13;;;;;;;17.53;1.50;;;;;;;5.91;63.22;95317.63;5032354;28;20176;-69
2024/01/26 04:58:39;;;;;;;0.43;0.43;;;;;;;5.94;62.85;95309.47;5032424;28;20180;-70
2024/01/26 05:01:05;;;;;;;0.40;0.40;;;;;;;5.93;62.74;95305.22;5032247;28;20241;-70
2024/01/26 05:03:30;;;;;;;0.40;0.40;;;;;;;5.94;62.89;95309.47;5032209;28;20199;-70
2024/01/26 05:05:56;;;;;;;0.40;0.40;;;;;;;5.86;62.96;95304.25;5032256;28;20182;-70
2024/01/26 05:08:21;;;;;;;0.60;0.60;;;;;;;5.84;63.07;95301.00;5032126;28;20168;-69
2024/01/26 05:10:47;;;;;;;0.50;0.50;;;;;;;5.82;62.85;95293.31;5032203;28;20179;-70
2024/01/26 05:13:12;;;;;;;1.23;0.97;;;;;;;5.85;63.86;95297.41;5032095;28;20172;-70
2024/01/26 05:15:38;;;;;;;0.40;0.40;;;;;;;5.76;63.63;95301.84;5032044;28;20644;-69
2024/01/26 05:18:04;;;;;;;1.80;0.70;;;;;;;5.77;63.45;95300.06;5032004;28;20229;-69
2024/01/26 05:20:29;;;;;;;0.70;0.70;;;;;;;5.58;63.12;95268.13;5031998;28;20230;-69
2024/01/26 05:22:55;;;;;;;0.83;0.83;;;;;;;5.68;63.52;95297.47;5031856;28;20203;-68
2024/01/26 05:25:21;;;;;;;1.10;1.10;;;;;;;5.69;63.73;95296.50;5030228;28;20271;-69
2024/01/26 05:27:46;;;;;;;0.50;0.50;;;;;;;5.72;63.11;95297.13;5031472;28;20187;-69
2024/01/26 05:30:12;;;;;;;0.50;0.50;;;;;;;5.69;63.22;95306.13;5031336;28;20180;-69
2024/01/26 05:32:37;;;;;;;0.40;0.40;;;;;;;5.66;62.71;95302.03;5031795;28;20259;-68
2024/01/26 05:35:03;;;;;;;0.60;0.60;;;;;;;5.63;62.90;95312.81;5030364;28;20175;-69
2024/01/26 05:37:29;;;;;;;0.53;0.53;;;;;;;5.67;63.53;95306.28;5031669;28;20176;-69
2024/01/26 05:39:54;;;;;;;0.50;0.50;;;;;;;5.57;63.06;95290.00;5031549;28;20171;-70
2024/01/26 05:42:20;;;;;;;0.40;0.40;;;;;;;5.68;62.98;95317.56;5030216;28;20214;-70
2024/01/26 05:44:45;;;;;;;1.40;1.30;;;;;;;5.49;63.54;95299.66;5031541;28;20175;-70
2024/01/26 05:47:11;;;;;;;0.60;0.60;;;;;;;5.60;62.77;95326.22;5031502;28;20178;-70
2024/01/26 05:49:36;;;;;;;0.77;0.77;;;;;;;5.66;62.88;95332.56;5031219;28;20254;-70
2024/01/26 05:52:02;;;;;;;0.40;0.40;;;;;;;5.62;62.75;95336.50;5031298;28;20176;-71
2024/01/26 05:54:28;;;;;;;0.50;0.50;;;;;;;5.71;62.47;95335.47;5031218;28;20249;-69
2024/01/26 05:56:53;;;;;;;0.40;0.40;;;;;;;5.70;62.60;95336.50;5031548;28;20179;-70
2024/01/26 05:59:19;;;;;;;0.90;0.90;;;;;;;5.65;62.61;95333.53;5031339;28;20272;-70
2024/01/26 06:01:44;;;;;;;1.03;0.97;;;;;;;5.63;62.86;95338.94;5031146;28;20675;-70
2024/01/26 06:04:10;;;;;;;0.40;0.40;;;;;;;5.69;62.65;95327.84;5031127;28;20179;-69
2024/01/26 06:06:35;;;;;;;0.70;0.70;;;;;;;5.75;62.10;95335.97;5029795;28;20187;-71
2024/01/26 06:09:01;;;;;;;0.50;0.50;;;;;;;5.96;61.41;95341.47;5031009;28;20175;-70
2024/01/26 06:11:26;;;;;;;1.10;1.07;;;;;;;5.69;62.27;95343.50;5031103;28;20544;-70
2024/01/26 06:13:52;;;;;;;0.70;0.70;;;;;;;5.81;62.07;95337.88;5030913;28;20168;-70
2024/01/26 06:16:17;;;;;;;0.77;0.77;;;;;;;5.77;61.47;95326.16;5030761;28;20176;-70
2024/01/26 06:18:46;;;;;;;0.60;0.60;;;;;;;5.87;61.78;95318.94;5030827;28;20790;-70
2024/01/26 06:21:12;;;;;;;0.50;0.50;;;;;;;5.93;60.72;95307.84;5030732;28;20309;-70
2024/01/26 06:23:40;;;;;;;1.73;1.70;;;;;;;5.94;61.01;95330.38;5030762;28;20254;-69
2024/01/26 06:26:05;;;;;;;0.40;0.40;;;;;;;5.91;61.40;95323.69;5030729;28;20245;-70
2024/01/26 06:28:31;;;;;;;0.60;0.60;;;;;;;6.00;61.14;95329.69;5030784;28;20222;-69
2024/01/26 06:30:56;;;;;;;0.67;0.67;;;;;;;6.63;59.14;95303.31;5030707;28;20171;-69
2024/01/26 06:33:22;;;;;;;0.43;0.43;;;;;;;7.56;55.75;95336.97;5030777;28;20172;-69
2024/01/26 06:35:47;;;;;;;0.67;0.67;;;;;;;8.77;51.96;95334.59;5030408;28;20183;-69
2024/01/26 06:38:13;;;;;;;0.67;0.53;;;;;;;10.09;48.58;95346.88;5030533;28;20183;-69
2024/01/26 06:40:39;;;;;;;0.53;0.53;;;;;;;10.44;46.85;95338.94;5029751;28;20184;-69
2024/01/26 06:43:08;;;;;;;0.50;0.50;;;;;;;10.84;45.01;95327.47;5030475;28;20272;-69
2024/01/26 06:45:34;;;;;;;3.03;1.50;;;;;;;10.67;45.67;95335.94;5030254;28;20176;-69
2024/01/26 06:48:00;;;;;;;2.03;0.97;;;;;;;10.40;45.15;95341.13;5037409;28;20183;-70
2024/01/26 06:50:26;;;;;;;0.60;0.60;;;;;;;10.99;44.83;95337.81;5031268;28;20288;-69
2024/01/26 06:52:51;;;;;;;0.50;0.50;;;;;;;11.20;44.25;95336.84;5030423;28;20624;-70
2024/01/26 06:55:17;;;;;;;0.73;0.73;;;;;;;11.31;43.06;95341.50;5029326;28;20188;-70
2024/01/26 06:57:42;;;;;;;0.70;0.70;;;;;;;11.27;43.25;95332.38;5012262;28;20222;-70
2024/01/26 07:00:09;;;;;;;0.60;0.60;;;;;;;11.21;42.61;95336.63;5029983;28;20180;-70
2024/01/26 07:02:34;;;;;;;0.53;0.53;;;;;;;11.07;43.60;95348.16;5029498;28;20205;-69
2024/01/26 07:05:00;;;;;;;0.37;0.37;;;;;;;10.93;43.68;95338.63;5029860;28;20259;-69
2024/01/26 07:07:26;;;;;;;0.40;0.40;;;;;;;10.55;44.24;95312.84;5029618;28;20184;-69
2024/01/26 07:09:51;;;;;;;0.40;0.40;;;;;;;10.87;43.72;95342.06;5029735;28;20266;-69
2024/01/26 07:12:17;;;;;;;0.40;0.40;;;;;;;11.58;42.73;95350.22;5029610;28;20172;-70
2024/01/26 07:14:42;;;;;;;1.03;0.97;;;;;;;11.74;41.97;95357.69;5029742;28;20260;-70
2024/01/26 07:17:08;;;;;;;0.60;0.60;;;;;;;12.31;41.25;95348.22;5029727;28;20176;-70
2024/01/26 07:19:33;;;;;;;0.83;0.83;;;;;;;13.08;39.66;95353.28;5029544;28;20557;-70
2024/01/26 07:21:59;;;;;;;0.40;0.40;;;;;;;13.25;38.72;95364.19;5028989;28;20482;-70
2024/01/26 07:24:24;;;;;;;1.17;1.00;;;;;;;13.06;38.66;95355.34;5029514;28;20704;-71
2024/01/26 07:26:50;;;;;;;0.40;0.40;;;;;;;13.49;38.33;95365.25;5029821;28;20876;-70
2024/01/26 07:29:15;;;;;;;0.40;0.40;;;;;;;13.59;37.71;95366.38;5029267;28;20245;-70
2024/01/26 07:31:41;;;;;;;0.97;0.97;;;;;;;14.03;36.62;95375.13;5029168;28;20203;-70
2024/01/26 07:34:07;;;;;;;0.47;0.47;;;;;;;14.33;36.42;95373.38;5029272;28;20175;-69
2024/01/26 07:36:36;;;;;;;0.40;0.40;;;;;;;14.86;35.71;95362.16;5029248;28;20174;-69
2024/01/26 07:39:03;;;;;;;3.40;0.90;;;;;;;16.63;32.45;95370.88;5029398;28;20168;-68
2024/01/26 07:41:28;;;;;;;0.55;0.55;;;;;;;17.52;30.63;95366.66;5029117;28;20176;-69
2024/01/26 07:43:54;;;;;;;1.10;1.00;;;;;;;17.23;30.75;95368.53;5023745;28;20222;-69
2024/01/26 07:46:19;;;;;;;1.38;1.38;;;;;;;17.47;30.44;95379.09;5027937;28;20192;-69
2024/01/26 07:48:44;;;;;;;0.93;0.93;;;;;;;16.82;30.41;95371.50;5030534;28;20179;-70
2024/01/26 07:51:10;;;;;;;0.40;0.40;;;;;;;16.61;31.15;95349.00;5035506;28;20670;-70
2024/01/26 07:53:35;;;;;;;0.50;0.50;;;;;;;17.57;30.46;95368.59;5031337;28;20175;-69
2024/01/26 07:56:01;;;;;;;0.50;0.50;;;;;;;18.43;29.58;95377.88;5031572;28;20182;-71
2024/01/26 07:58:26;;;;;;;0.65;0.60;;;;;;;18.61;28.05;95376.81;5030929;28;20171;-70
2024/01/26 08:00:53;;;;;;;0.50;0.50;;;;;;;17.04;29.71;95382.31;5031852;28;20191;-70
2024/01/26 08:03:18;;;;;;;0.98;0.90;;;;;;;15.00;32.99;95379.50;5013519;28;20688;-70
2024/01/26 08:05:44;;;;;;;0.65;0.65;;;;;;;14.82;34.19;95384.84;5031366;28;20195;-71
2024/01/26 08:08:09;;;;;;;0.47;0.47;;;;;;;14.96;34.20;95377.53;5031683;28;20258;-71
2024/01/26 08:10:35;;;;;;;2.57;0.97;;;;;;;14.22;35.32;95355.56;5031510;28;20175;-69
2024/01/26 08:13:00;;;;;;;0.40;0.40;;;;;;;15.06;34.71;95381.25;5031131;28;20176;-70
2024/01/26 08:15:26;;;;;;;0.40;0.40;;;;;;;15.69;33.68;95398.50;5031247;28;20176;-69
2024/01/26 08:17:51;;;;;;;2.47;1.80;;;;;;;15.69;32.98;95395.84;5013411;28;20211;-70
2024/01/26 08:20:17;;;;;;;0.90;0.90;;;;;;;14.82;34.28;95402.59;5031337;28;20300;-67
2024/01/26 08:22:43;;;;;;;0.30;0.30;;;;;;;14.57;35.94;95394.75;5032059;28;20696;-69
2024/01/26 08:25:09;;;;;;;0.40;0.40;;;;;;;15.35;34.32;95403.47;5032198;28;20559;-69
2024/01/26 08:27:35;;;;;;;0.40;0.40;;;;;;;15.76;34.22;95399.19;5031916;28;20191;-68
2024/01/26 08:30:02;;;;;;;0.50;0.50;;;;;;;16.29;33.71;95403.59;5031318;28;20180;-70
2024/01/26 08:32:27;;;;;;;0.40;0.40;;;;;;;15.45;34.58;95377.22;5031309;28;20247;-70
2024/01/26 08:34:53;;;;;;;0.37;0.37;;;;;;;15.43;35.44;95383.78;5031801;28;20306;-70
2024/01/26 08:37:18;;;;;;;0.30;0.30;;;;;;;15.49;35.57;95374.91;5031575;28;20584;-70
2024/01/26 08:39:44;;;;;;;1.07;0.50;;;;;;;15.14;34.42;95388.06;5031152;28;20160;-70
2024/01/26 08:42:10;;;;;;;0.97;0.97;;;;;;;14.46;35.29;95388.34;5032053;28;20203;-69
2024/01/26 08:44:36;;;;;;;0.30;0.30;;;;;;;13.85;37.11;95391.78;5031627;28;20176;-69
2024/01/26 08:47:01;;;;;;;0.73;0.73;;;;;;;13.63;37.55;95389.75;5031437;28;20171;-69
2024/01/26 08:49:27;;;;;;;0.87;0.87;;;;;;;13.65;39.12;95379.78;5014010;28;20295;-69
2024/01/26 08:51:52;;;;;;;1.17;1.17;;;;;;;13.93;37.70;95399.44;5041497;28;20898;-70
2024/01/26 08:54:18;;;;;;;0.50;0.50;;;;;;;13.45;38.96;95401.88;5033728;28;20671;-69
2024/01/26 08:56:44;;;;;;;0.63;0.63;;;;;;;13.55;38.61;95401.41;5034082;28;20536;-69
2024/01/26 08:59:10;;;;;;;1.27;1.27;;;;;;;12.81;38.65;95331.50;5031630;28;20171;-69
2024/01/26 09:01:36;;;;;;;0.40;0.40;;;;;;;13.26;39.27;95402.84;5031338;28;20187;-69
2024/01/26 09:04:08;;;;;;;0.40;0.40;;;;;;;13.45;39.19;95398.44;5030588;28;20200;-69
2024/01/26 09:06:37;;;;;;;0.50;0.50;;;;;;;13.55;38.17;95402.22;5031546;28;20194;-69
2024/01/26 09:09:04;;;;;;;0.63;0.63;;;;;;;13.57;37.83;95396.72;5031844;28;20641;-68
2024/01/26 09:11:29;;;;;;;0.40;0.40;;;;;;;13.66;37.82;95402.56;5031686;28;20937;-68
2024/01/26 09:13:58;;;;;;;0.80;0.80;;;;;;;13.78;37.87;95398.16;5031679;28;20175;-68
2024/01/26 09:16:24;;;;;;;0.70;0.70;;;;;;;13.31;38.08;95386.34;5031419;28;20183;-68
2024/01/26 09:18:50;;;;;;;0.40;0.40;;;;;;;12.59;39.73;95385.69;5031514;28;20176;-68
2024/01/26 09:21:16;;;;;;;0.63;0.63;;;;;;;12.20;41.32;95397.19;5013484;28;20285;-68
2024/01/26 09:23:44;;;;;;;0.60;0.60;;;;;;;12.15;41.10;95386.44;5031054;28;20210;-68
2024/01/26 09:26:10;;;;;;;0.40;0.40;;;;;;;11.87;41.78;95389.34;5031276;28;20536;-69
2024/01/26 09:28:36;;;;;;;1.37;1.27;;;;;;;11.82;42.53;95372.53;5031294;28;20229;-68
2024/01/26 09:31:02;;;;;;;0.40;0.40;;;;;;;12.14;41.59;95378.75;5031244;28;20176;-69
2024/01/26 09:33:27;;;;;;;3.10;0.63;;;;;;;12.09;41.86;95382.00;5031003;28;20584;-69
2024/01/26 09:35:54;;;;;;;0.50;0.50;;;;;;;12.29;42.27;95379.28;5031121;28;20172;-69
2024/01/26 09:38:20;;;;;;;0.90;0.90;;;;;;;12.12;40.87;95372.84;5030787;28;20275;-69
2024/01/26 09:40:45;;;;;;;0.30;0.30;;;;;;;11.76;41.42;95373.34;5031104;28;20695;-69
2024/01/26 09:43:11;;;;;;;0.50;0.50;;;;;;;11.52;42.18;95358.91;5030005;28;20288;-69
2024/01/26 09:45:37;;;;;;;0.50;0.50;;;;;;;11.60;42.49;95380.63;5029706;28;20261;-68
2024/01/26 09:48:05;;;;;;;0.40;0.40;;;;;;;11.83;42.66;95374.97;5013279;28;20175;-68
2024/01/26 09:50:31;;;;;;;0.43;0.43;;;;;;;11.88;42.21;95348.75;5030688;28;20183;-68
2024/01/26 09:52:58;;;;;;;1.70;1.60;;;;;;;11.93;42.17;95387.72;5049325;28;20245;-68
2024/01/26 09:55:24;;;;;;;0.60;0.60;;;;;;;11.08;43.33;95368.22;5047407;28;20620;-68
2024/01/26 09:57:51;;;;;;;0.80;0.80;;;;;;;11.30;43.80;95358.31;5030624;28;20179;-68
2024/01/26 10:00:17;;;;;;;1.33;1.33;;;;;;;11.50;42.64;95367.03;5030355;28;20249;-69
2024/01/26 10:02:43;;;;;;;1.80;0.73;;;;;;;11.04;43.01;95353.03;5030541;28;20700;-68
2024/01/26 10:05:09;;;;;;;1.40;0.50;;;;;;;10.75;43.81;95347.09;5030676;28;20230;-68
2024/01/26 10:07:35;;;;;;;1.13;1.00;;;;;;;10.79;44.08;95339.63;5030579;28;20175;-68
2024/01/26 10:10:01;;;;;;;3.70;0.70;;;;;;;10.91;44.58;95352.00;5030573;28;20237;-68
2024/01/26 10:12:26;;;;;;;0.40;0.40;;;;;;;11.02;44.26;95344.53;5030276;28;20603;-69
2024/01/26 10:15:11;;;;;;;0.47;0.47;;;;;;;10.82;43.79;95345.28;5030178;28;20569;-68
2024/01/26 10:17:38;;;;;;;2.13;0.47;;;;;;;10.57;44.70;95334.50;5012375;28;20257;-68
2024/01/26 10:20:07;;;;;;;0.57;0.50;;;;;;;10.57;44.85;95337.16;5030314;28;20289;-68
2024/01/26 10:22:35;;;;;;;2.80;0.60;;;;;;;10.60;45.66;95343.84;5030338;28;20195;-70
2024/01/26 10:25:02;;;;;;;0.40;0.40;;;;;;;10.49;45.07;95344.41;5030497;28;20186;-68
2024/01/26 10:27:29;;;;;;;0.30;0.30;;;;;;;10.51;45.39;95343.22;5029989;28;20262;-69
2024/01/26 10:29:54;;;;;;;0.80;0.80;;;;;;;10.44;45.97;95346.84;5030390;28;20188;-68
2024/01/26 10:32:22;;;;;;;1.17;0.60;;;;;;;10.38;44.27;95345.00;5030252;28;20961;-68
2024/01/26 10:34:52;;;;;;;1.27;0.87;;;;;;;9.79;45.13;95321.81;5030513;28;20633;-68
2024/01/26 10:37:20;;;;;;;0.80;0.80;;;;;;;9.84;45.94;95348.34;5030203;28;20191;-68
2024/01/26 10:39:48;;;;;;;0.60;0.60;;;;;;;9.72;46.06;95336.75;5030310;28;20182;-68
2024/01/26 10:42:14;;;;;;;0.70;0.70;;;;;;;9.56;45.52;95334.44;5030088;28;20302;-67
2024/01/26 10:44:40;;;;;;;0.50;0.50;;;;;;;9.39;46.04;95342.59;5029968;28;20176;-68
2024/01/26 10:47:08;;;;;;;0.40;0.40;;;;;;;9.42;46.15;95326.47;5029728;28;20201;-68
2024/01/26 10:49:36;;;;;;;0.37;0.37;;;;;;;9.38;47.09;95324.41;5029876;28;20591;-68
2024/01/26 10:52:04;;;;;;;1.43;1.33;;;;;;;9.45;46.33;95326.06;5011957;28;20187;-68
2024/01/26 10:54:31;;;;;;;0.87;0.87;;;;;;;9.40;46.27;95335.53;5012080;28;20551;-68
2024/01/26 10:56:57;;;;;;;0.67;0.67;;;;;;;9.36;46.96;95321.97;5029911;28;20172;-68
2024/01/26 10:59:23;;;;;;;0.70;0.70;;;;;;;9.51;46.30;95344.72;5012142;28;20714;-68
2024/01/26 11:01:49;;;;;;;0.40;0.40;;;;;;;8.96;45.88;95322.66;5030000;28;20737;-68
2024/01/26 11:04:14;;;;;;;0.40;0.40;;;;;;;8.68;47.59;95333.91;5029788;28;20214;-68
2024/01/26 11:06:40;;;;;;;0.40;0.40;;;;;;;8.85;47.96;95333.66;5029804;28;20184;-68
2024/01/26 11:09:08;;;;;;;0.60;0.60;;;;;;;8.88;47.92;95326.22;5030062;28;20569;-68
2024/01/26 11:11:39;;;;;;;0.50;0.50;;;;;;;8.95;49.07;95313.97;5029488;28;20184;-68
2024/01/26 11:14:05;;;;;;;1.17;1.17;;;;;;;9.03;48.58;95326.16;5029468;28;20657;-68
2024/01/26 11:16:35;;;;;;;2.30;1.90;;;;;;;9.05;48.69;95324.97;5028897;28;20271;-68
2024/01/26 11:19:02;;;;;;;0.40;0.40;;;;;;;9.02;48.27;95319.28;5029449;28;20176;-68
2024/01/26 11:21:44;;;;;;;3.23;0.90;;;;;;;9.14;47.82;95333.53;5011524;28;20246;-68
2024/01/26 11:24:17;;;;;;;0.40;0.40;;;;;;;8.89;47.11;95303.41;5029254;28;20204;-68
2024/01/26 11:26:58;;;;;;;0.50;0.50;;;;;;;8.80;46.93;95329.00;5029792;28;20555;-68
2024/01/26 11:29:40;;;;;;;0.40;0.40;;;;;;;8.82;48.14;95331.44;5032807;28;20183;-68
2024/01/26 11:32:19;;;;;;;0.63;0.63;;;;;;;8.78;48.63;95328.34;5039242;28;20460;-68
2024/01/26 11:35:00;;;;;;;0.30;0.30;;;;;;;8.70;48.75;95315.34;5033932;28;20171;-68